This is the latest recevied weather packets stored in our database for station/object F4FEB-14. If no packets are shown the sender has not sent any weather packets the latest 1 day(s).
| Time | Temp. | Humidity | Pressure | Rain* | Wind** | Luminosity | Snow |
|---|---|---|---|---|---|---|---|
| 1778026676 | 10.56° C | 100% | 1010.9 hPa | 0 mm | 1.79 m/s, 163° | - | - |
| 1778026375 | 10.56° C | 100% | 1010.9 hPa | 0 mm | 1.34 m/s, 179° | - | - |
| 1778025772 | 11.11° C | 100% | 1011.1 hPa | 0.51 mm | 1.79 m/s, 169° | - | - |
| 1778025472 | 11.11° C | 100% | 1011.1 hPa | 0.51 mm | 1.79 m/s, 165° | - | - |
| 1778024869 | 11.11° C | 100% | 1011.2 hPa | 0.25 mm | 2.24 m/s, 197° | - | - |
| 1778024568 | 11.11° C | 100% | 1011.4 hPa | 0.25 mm | 2.24 m/s, 177° | - | - |
| 1778024266 | 11.11° C | 100% | 1011.4 hPa | 0 mm | 2.24 m/s, 161° | - | - |
| 1778023665 | 11.11° C | 100% | 1011.5 hPa | 0 mm | 1.34 m/s, 171° | - | - |
| 1778023364 | 11.11° C | 100% | 1011.5 hPa | 0 mm | 1.79 m/s, 173° | - | - |
| 1778023063 | 10.56° C | 100% | 1011.4 hPa | 0 mm | 1.34 m/s, 187° | - | - |
| 1778022762 | 10.56° C | 100% | 1011.5 hPa | 0 mm | 0.89 m/s, 190° | - | - |
| 1778022461 | 10.56° C | 100% | 1011.5 hPa | 0 mm | 0.89 m/s, 223° | - | - |
| 1778022160 | 10° C | 100% | 1011.5 hPa | 0 mm | 0.89 m/s, 201° | - | - |
| 1778021858 | 10° C | 100% | 1011.4 hPa | 0 mm | 1.79 m/s, 173° | - | - |
| 1778021558 | 9.44° C | 100% | 1011.5 hPa | 0 mm | 1.34 m/s, 182° | - | - |
| 1778021256 | 8.89° C | 100% | 1011.5 hPa | 0 mm | 0.45 m/s, 278° | - | - |
| 1778020954 | 8.33° C | 100% | 1011.5 hPa | 0 mm | 0.45 m/s, 252° | - | - |
| 1778020653 | 8.33° C | 100% | 1011.5 hPa | 0 mm | 0.45 m/s, 255° | - | - |
| 1778020352 | 8.89° C | 100% | 1011.6 hPa | 0 mm | 0.89 m/s, 181° | - | - |
| 1778020051 | 8.89° C | 100% | 1011.4 hPa | 0 mm | 0 m/s | - | - |
| 1778019749 | 8.33° C | 100% | 1011.5 hPa | 0 mm | 0 m/s | - | - |
| 1778019448 | 8.33° C | 100% | 1011.5 hPa | 0 mm | 0 m/s | - | - |
| 1778018846 | 8.33° C | 100% | 1011.5 hPa | 0 mm | 0.89 m/s, 166° | - | - |
| 1778018545 | 7.78° C | 100% | 1011.4 hPa | 0 mm | 0.45 m/s, 189° | - | - |
| 1778018244 | 7.78° C | 100% | 1011.4 hPa | 0 mm | 0 m/s | - | - |
* Rain latest hour (hover to see other rain measurements)
** Current wind speed in m/s (hover to see current wind gust speed)